Time;durP1;ratioP1;P1;durP2;ratioP2;P2;SDS_P1;SDS_P2;PMS_P1;PMS_P2;Temp;Humidity;BMP_temperature;BMP_pressure;BME280_temperature;BME280_humidity;BME280_pressure;Samples;Min_cycle;Max_cycle;Signal;HPM_P1;HPM_P2
2023/04/21 00:00:08;;;;;;;22.20;17.57;;;6.90;99.90;;;;;;6195145;23;20200;-72
2023/04/21 00:02:38;;;;;;;27.80;20.10;;;6.90;99.90;;;;;;6228893;23;20292;-70
2023/04/21 00:05:09;;;;;;;26.23;19.30;;;6.90;99.90;;;;;;6229447;23;20396;-73
2023/04/21 00:07:36;;;;;;;24.67;18.07;;;6.80;99.90;;;;;;6220869;23;20644;-71
2023/04/21 00:10:06;;;;;;;25.37;19.50;;;6.80;99.90;;;;;;6219211;23;20377;-71
2023/04/21 00:12:31;;;;;;;24.80;18.60;;;6.80;99.90;;;;;;6219502;23;20413;-72
2023/04/21 00:14:57;;;;;;;31.33;21.73;;;6.80;99.90;;;;;;6219692;23;20361;-70
2023/04/21 00:17:22;;;;;;;32.17;20.97;;;6.80;99.90;;;;;;6219399;23;20437;-72
2023/04/21 00:19:48;;;;;;;28.80;19.83;;;6.80;99.90;;;;;;6192623;23;20161;-72
2023/04/21 00:22:14;;;;;;;31.83;21.63;;;6.80;99.90;;;;;;6220823;23;20169;-70
2023/04/21 00:24:39;;;;;;;34.23;24.97;;;6.80;99.90;;;;;;6219847;23;20147;-71
2023/04/21 00:27:05;;;;;;;28.80;23.10;;;6.80;99.90;;;;;;6219601;23;20139;-71
2023/04/21 00:29:31;;;;;;;32.03;23.30;;;6.80;99.90;;;;;;6219134;23;20436;-72
2023/04/21 00:31:56;;;;;;;29.10;21.40;;;6.80;99.90;;;;;;6193148;23;20162;-71
2023/04/21 00:34:22;;;;;;;31.30;21.77;;;6.80;99.90;;;;;;6193156;23;20508;-70
2023/04/21 00:36:48;;;;;;;33.20;24.20;;;6.80;99.90;;;;;;6219813;23;20361;-73
2023/04/21 00:39:13;;;;;;;27.90;21.30;;;6.80;99.90;;;;;;6193225;23;20463;-70
2023/04/21 00:41:40;;;;;;;30.80;21.30;;;6.80;99.90;;;;;;6219167;23;20172;-69
2023/04/21 00:44:07;;;;;;;30.70;21.50;;;6.80;99.90;;;;;;6193068;23;20131;-70
2023/04/21 00:46:34;;;;;;;26.03;18.87;;;6.80;99.90;;;;;;6219383;23;20389;-72
2023/04/21 00:49:02;;;;;;;33.60;20.80;;;6.80;99.90;;;;;;6218880;23;20420;-71
2023/04/21 00:51:28;;;;;;;31.50;21.63;;;6.80;99.90;;;;;;6193222;23;20374;-69
2023/04/21 00:53:55;;;;;;;30.20;18.43;;;6.80;99.90;;;;;;6219419;23;20369;-71
2023/04/21 00:56:21;;;;;;;42.53;26.30;;;6.80;99.90;;;;;;6219288;23;20643;-72
2023/04/21 00:58:48;;;;;;;35.23;23.90;;;6.80;99.90;;;;;;6218959;23;21283;-73
2023/04/21 01:01:13;;;;;;;34.87;25.30;;;6.80;99.90;;;;;;6219404;23;20416;-71
2023/04/21 01:03:44;;;;;;;34.10;24.77;;;6.80;99.90;;;;;;6219427;23;20388;-70
2023/04/21 01:06:09;;;;;;;29.53;21.47;;;6.90;99.90;;;;;;6219515;23;20365;-71
2023/04/21 01:08:36;;;;;;;36.00;23.40;;;6.90;99.90;;;;;;6193112;23;20416;-74
2023/04/21 01:11:09;;;;;;;35.93;23.63;;;6.80;99.90;;;;;;6218902;23;20816;-70
2023/04/21 01:13:35;;;;;;;31.10;22.30;;;6.90;99.90;;;;;;6219030;23;20168;-71
2023/04/21 01:16:01;;;;;;;31.53;23.03;;;6.90;99.90;;;;;;6192603;23;20396;-71
2023/04/21 01:18:28;;;;;;;29.70;20.07;;;6.80;99.90;;;;;;6192464;23;20373;-69
2023/04/21 01:20:53;;;;;;;39.00;24.90;;;6.80;99.90;;;;;;6192092;23;20407;-70
2023/04/21 01:23:19;;;;;;;32.17;21.63;;;6.80;99.90;;;;;;6219181;23;20443;-70
2023/04/21 01:25:46;;;;;;;28.43;18.97;;;6.80;99.90;;;;;;6192703;23;20178;-71
2023/04/21 01:28:11;;;;;;;23.87;16.30;;;6.80;99.90;;;;;;6219296;23;20377;-72
2023/04/21 01:30:38;;;;;;;27.70;17.77;;;6.80;99.90;;;;;;6194652;23;20443;-71
2023/04/21 01:33:04;;;;;;;21.47;15.37;;;6.80;99.90;;;;;;6225787;23;20866;-73
2023/04/21 01:35:30;;;;;;;30.50;17.30;;;6.80;99.90;;;;;;6219029;23;20230;-71
2023/04/21 01:37:55;;;;;;;24.17;16.30;;;6.90;99.90;;;;;;6219386;23;20217;-72
2023/04/21 01:40:21;;;;;;;31.70;18.30;;;6.90;99.90;;;;;;6218886;23;20154;-70
2023/04/21 01:42:46;;;;;;;26.10;18.73;;;6.90;99.90;;;;;;6192275;23;20174;-72
2023/04/21 01:45:12;;;;;;;29.73;19.83;;;6.90;99.90;;;;;;6219423;23;20134;-70
2023/04/21 01:47:38;;;;;;;37.73;21.50;;;6.90;99.90;;;;;;6219268;23;20209;-70
2023/04/21 01:50:05;;;;;;;27.70;17.30;;;7.00;99.90;;;;;;6192023;23;20228;-69
2023/04/21 01:52:31;;;;;;;43.07;25.70;;;7.00;99.90;;;;;;6218748;23;20647;-70
2023/04/21 01:54:57;;;;;;;36.37;21.47;;;7.00;99.90;;;;;;6192467;23;20468;-69
2023/04/21 01:57:22;;;;;;;34.17;21.30;;;7.00;99.90;;;;;;6218788;23;20646;-71
2023/04/21 01:59:49;;;;;;;33.17;23.00;;;7.00;99.90;;;;;;6191630;23;20178;-70
2023/04/21 02:02:15;;;;;;;37.17;23.13;;;7.00;99.90;;;;;;6218270;23;20868;-71
2023/04/21 02:04:40;;;;;;;31.70;20.80;;;7.00;99.90;;;;;;6192086;23;20495;-70
2023/04/21 02:07:06;;;;;;;35.67;20.13;;;7.00;99.90;;;;;;6192054;23;20146;-70
2023/04/21 02:09:32;;;;;;;44.93;25.33;;;7.00;99.90;;;;;;6217720;23;20434;-71
2023/04/21 02:11:57;;;;;;;47.23;26.80;;;7.00;99.90;;;;;;6218396;23;20451;-70
2023/04/21 02:14:24;;;;;;;47.10;26.47;;;7.00;99.90;;;;;;6218252;23;20134;-70
2023/04/21 02:16:50;;;;;;;34.80;21.73;;;7.00;99.90;;;;;;6191982;23;20169;-71
2023/04/21 02:19:15;;;;;;;37.00;22.33;;;6.90;99.90;;;;;;6218147;23;20389;-69
2023/04/21 02:21:41;;;;;;;41.27;26.00;;;6.80;99.90;;;;;;6219286;23;20273;-70
2023/04/21 02:24:06;;;;;;;36.37;23.70;;;6.70;99.90;;;;;;6220375;23;20134;-69
2023/04/21 02:26:32;;;;;;;31.33;19.70;;;6.70;99.90;;;;;;6191214;23;20419;-72
2023/04/21 02:28:59;;;;;;;37.33;22.17;;;6.70;99.90;;;;;;6191432;23;20275;-69
2023/04/21 02:31:24;;;;;;;51.80;29.23;;;6.60;99.90;;;;;;6191846;23;20392;-69
2023/04/21 02:33:50;;;;;;;53.77;29.83;;;6.60;99.90;;;;;;6218138;23;20138;-70
2023/04/21 02:36:16;;;;;;;48.17;29.27;;;6.60;99.90;;;;;;6218341;23;20179;-70
2023/04/21 02:38:41;;;;;;;50.40;28.93;;;6.50;99.90;;;;;;6222384;23;20138;-72
2023/04/21 02:41:09;;;;;;;50.20;27.00;;;6.50;99.90;;;;;;6196566;23;20162;-71
2023/04/21 02:43:34;;;;;;;63.23;30.37;;;6.40;99.90;;;;;;6223460;23;20369;-71
2023/04/21 02:46:08;;;;;;;49.93;25.23;;;6.30;99.90;;;;;;6223494;23;20141;-71
2023/04/21 02:48:36;;;;;;;40.27;24.20;;;6.30;99.90;;;;;;6225050;23;20142;-70
2023/04/21 02:51:03;;;;;;;39.57;21.47;;;6.30;99.90;;;;;;6226183;23;20420;-70
2023/04/21 02:53:29;;;;;;;47.10;25.57;;;6.20;99.90;;;;;;6199802;23;20381;-70
2023/04/21 02:55:55;;;;;;;36.70;19.67;;;6.20;99.90;;;;;;6198748;23;20377;-71
2023/04/21 02:58:21;;;;;;;53.43;26.67;;;6.20;99.90;;;;;;6226695;23;20138;-71
2023/04/21 03:00:46;;;;;;;43.60;23.83;;;6.20;99.90;;;;;;6227658;23;20196;-70
2023/04/21 03:03:14;;;;;;;60.10;32.57;;;6.20;99.90;;;;;;6230080;23;20368;-71
2023/04/21 03:05:41;;;;;;;45.83;26.23;;;6.20;99.90;;;;;;6204876;23;20173;-72
2023/04/21 03:08:07;;;;;;;53.93;30.27;;;6.10;99.90;;;;;;6229955;23;20361;-70
2023/04/21 03:10:36;;;;;;;53.13;26.40;;;6.10;99.90;;;;;;6197022;23;20224;-70
2023/04/21 03:13:02;;;;;;;53.50;27.20;;;6.10;99.90;;;;;;6191148;23;20416;-70
2023/04/21 03:15:31;;;;;;;45.77;23.87;;;6.00;99.90;;;;;;6191509;23;20376;-70
2023/04/21 03:17:56;;;;;;;43.90;21.70;;;6.00;99.90;;;;;;6220952;23;20440;-71
2023/04/21 03:20:24;;;;;;;34.27;18.43;;;6.00;99.90;;;;;;6222309;23;20171;-71
2023/04/21 03:22:52;;;;;;;32.60;18.90;;;5.90;99.90;;;;;;6217609;23;20400;-71
2023/04/21 03:25:18;;;;;;;39.20;20.57;;;5.90;99.90;;;;;;6216849;23;20180;-69
2023/04/21 03:27:44;;;;;;;30.37;18.07;;;5.90;99.90;;;;;;6217613;23;20397;-71
2023/04/21 03:30:10;;;;;;;31.47;16.70;;;5.90;99.90;;;;;;6190296;23;20169;-71
2023/04/21 03:32:36;;;;;;;31.63;17.50;;;5.90;99.90;;;;;;6190996;23;20370;-71
2023/04/21 03:35:02;;;;;;;40.63;20.20;;;5.90;99.90;;;;;;6216827;23;20376;-70
2023/04/21 03:37:27;;;;;;;54.40;27.17;;;5.90;99.90;;;;;;6217444;23;20788;-70
2023/04/21 03:39:53;;;;;;;54.40;26.00;;;5.90;99.90;;;;;;6190651;23;20542;-68
2023/04/21 03:42:19;;;;;;;65.00;27.53;;;5.90;99.90;;;;;;6190910;23;20177;-71
2023/04/21 03:44:45;;;;;;;64.40;29.00;;;5.90;99.90;;;;;;6217842;23;20357;-70
2023/04/21 03:47:10;;;;;;;69.23;34.00;;;5.90;99.90;;;;;;6190596;23;20146;-70
2023/04/21 03:49:36;;;;;;;67.07;30.90;;;5.90;99.90;;;;;;6190636;23;20189;-71
2023/04/21 03:52:01;;;;;;;60.17;27.27;;;5.90;99.90;;;;;;6217649;23;20138;-71
2023/04/21 03:54:27;;;;;;;64.40;29.97;;;5.90;99.90;;;;;;6216875;23;20146;-70
2023/04/21 03:56:53;;;;;;;60.20;30.60;;;5.90;99.90;;;;;;6216869;23;20507;-71
2023/04/21 03:59:18;;;;;;;95.43;37.80;;;5.90;99.90;;;;;;6218575;23;20203;-71
2023/04/21 04:01:44;;;;;;;76.20;34.00;;;5.90;99.90;;;;;;6219567;23;20177;-70
2023/04/21 04:04:09;;;;;;;94.53;38.50;;;5.90;99.90;;;;;;6217361;23;20144;-71
2023/04/21 04:06:35;;;;;;;77.53;32.70;;;5.90;99.90;;;;;;6217855;23;20134;-70
2023/04/21 04:09:03;;;;;;;77.60;31.47;;;5.90;99.90;;;;;;6217870;23;20161;-71
2023/04/21 04:11:29;;;;;;;58.73;27.83;;;5.90;99.90;;;;;;6217533;23;20451;-71
2023/04/21 04:13:55;;;;;;;63.90;29.23;;;5.90;99.90;;;;;;6219587;23;20361;-72
2023/04/21 04:16:20;;;;;;;50.03;22.10;;;5.90;99.90;;;;;;6218988;23;20588;-71
2023/04/21 04:18:46;;;;;;;44.40;20.47;;;5.90;99.90;;;;;;6217184;23;20189;-70
2023/04/21 04:21:11;;;;;;;43.57;20.83;;;5.90;99.90;;;;;;6218182;23;20192;-71
2023/04/21 04:23:37;;;;;;;40.60;19.30;;;5.90;99.90;;;;;;6218193;23;20133;-70
2023/04/21 04:26:04;;;;;;;55.93;24.10;;;5.90;99.90;;;;;;6216628;23;20134;-72
2023/04/21 04:28:30;;;;;;;70.87;27.40;;;5.90;99.90;;;;;;6216702;23;20145;-69
2023/04/21 04:30:56;;;;;;;52.90;23.30;;;6.00;99.90;;;;;;6217450;23;20488;-70
2023/04/21 04:33:21;;;;;;;45.97;21.20;;;6.00;99.90;;;;;;6217621;23;20369;-70
2023/04/21 04:35:47;;;;;;;94.00;31.40;;;6.00;99.90;;;;;;6216331;23;20131;-69
2023/04/21 04:38:16;;;;;;;86.77;31.30;;;6.00;99.90;;;;;;6191767;23;20146;-71
2023/04/21 04:40:42;;;;;;;85.60;34.57;;;6.00;99.90;;;;;;6217525;23;20261;-71
2023/04/21 04:43:09;;;;;;;103.27;41.87;;;6.00;99.90;;;;;;6217521;23;20637;-72
2023/04/21 04:45:36;;;;;;;113.00;41.30;;;6.00;99.90;;;;;;6216776;23;20353;-71
2023/04/21 04:48:02;;;;;;;99.30;39.63;;;6.10;99.90;;;;;;6217891;23;20345;-72
2023/04/21 04:50:28;;;;;;;86.57;34.17;;;6.00;99.90;;;;;;6218009;23;20442;-72
2023/04/21 04:52:55;;;;;;;82.30;32.90;;;6.10;99.90;;;;;;6220077;23;20641;-72
2023/04/21 04:55:21;;;;;;;72.90;30.20;;;6.10;99.90;;;;;;6220627;23;20423;-72
2023/04/21 04:57:46;;;;;;;102.33;39.30;;;6.10;99.90;;;;;;6218567;23;20369;-70
2023/04/21 05:00:13;;;;;;;118.43;41.90;;;6.10;99.90;;;;;;6218736;23;20397;-71
2023/04/21 05:02:39;;;;;;;99.60;39.00;;;6.20;99.90;;;;;;6224967;23;20173;-72
2023/04/21 05:05:07;;;;;;;117.60;41.27;;;6.20;99.90;;;;;;6231913;23;20357;-73
2023/04/21 05:07:33;;;;;;;91.40;35.27;;;6.30;99.90;;;;;;6228728;23;20364;-70
2023/04/21 05:09:59;;;;;;;180.40;57.57;;;6.40;99.90;;;;;;6225537;23;20393;-71
2023/04/21 05:12:25;;;;;;;126.53;42.53;;;6.40;99.90;;;;;;6174827;23;20429;-71
2023/04/21 05:14:51;;;;;;;112.87;40.53;;;6.50;99.90;;;;;;6226498;23;20372;-72
2023/04/21 05:17:16;;;;;;;112.80;40.97;;;6.50;99.90;;;;;;6226252;23;20145;-72
2023/04/21 05:19:42;;;;;;;109.53;38.00;;;6.60;99.90;;;;;;6225762;23;20158;-74
2023/04/21 05:22:07;;;;;;;93.73;33.37;;;6.60;99.90;;;;;;6228066;23;20162;-73
2023/04/21 05:24:33;;;;;;;91.97;37.17;;;6.60;99.90;;;;;;6226556;23;20134;-73
2023/04/21 05:27:00;;;;;;;104.50;41.63;;;6.60;99.90;;;;;;6226388;23;20333;-71
2023/04/21 05:29:25;;;;;;;95.20;37.80;;;6.50;99.90;;;;;;6198734;23;20487;-73
2023/04/21 05:31:51;;;;;;;103.23;42.20;;;6.40;99.90;;;;;;6201421;23;20385;-72
2023/04/21 05:34:17;;;;;;;130.13;45.40;;;6.50;99.90;;;;;;6227954;23;20168;-75
2023/04/21 05:36:42;;;;;;;101.57;39.43;;;6.50;99.90;;;;;;6226268;23;20145;-75
2023/04/21 05:39:08;;;;;;;96.97;41.60;;;6.40;99.90;;;;;;6201355;23;20173;-75
2023/04/21 05:41:34;;;;;;;98.87;38.67;;;6.50;99.90;;;;;;6203061;23;20173;-74
2023/04/21 05:43:59;;;;;;;84.23;34.03;;;6.40;99.90;;;;;;6228087;23;20134;-72
2023/04/21 05:46:25;;;;;;;105.93;41.40;;;6.40;99.90;;;;;;6227337;23;20178;-73
2023/04/21 05:48:50;;;;;;;96.13;39.23;;;6.40;99.90;;;;;;6226553;23;20228;-74
2023/04/21 05:51:16;;;;;;;91.13;36.40;;;6.40;99.90;;;;;;6199067;23;20482;-70
2023/04/21 05:53:43;;;;;;;101.53;39.07;;;6.40;99.90;;;;;;6226740;23;20190;-74
2023/04/21 05:56:09;;;;;;;80.30;34.40;;;6.30;99.90;;;;;;6201317;23;20169;-71
2023/04/21 05:58:36;;;;;;;98.30;39.87;;;6.40;99.90;;;;;;6227838;23;20374;-72
2023/04/21 06:01:02;;;;;;;123.33;45.67;;;6.40;99.90;;;;;;6200187;23;20420;-74
2023/04/21 06:03:29;;;;;;;80.07;34.73;;;6.50;99.90;;;;;;6225409;23;20353;-72
2023/04/21 06:05:56;;;;;;;81.53;37.83;;;6.60;99.90;;;;;;6175011;23;20381;-71
2023/04/21 06:08:22;;;;;;;69.30;33.77;;;6.60;99.90;;;;;;6199987;23;20364;-72
2023/04/21 06:10:48;;;;;;;84.40;34.73;;;6.70;99.90;;;;;;6173750;23;20428;-76
2023/04/21 06:13:13;;;;;;;93.63;38.37;;;6.90;99.90;;;;;;6227682;23;20497;-74
2023/04/21 06:15:39;;;;;;;81.67;34.30;;;7.10;99.90;;;;;;6229431;23;20134;-75
2023/04/21 06:18:04;;;;;;;69.77;32.90;;;7.30;99.90;;;;;;6227458;23;20134;-71
2023/04/21 06:20:30;;;;;;;73.70;30.77;;;7.30;99.90;;;;;;6226896;23;20162;-74
2023/04/21 06:22:56;;;;;;;63.07;32.00;;;7.30;99.90;;;;;;6204309;23;20204;-71
2023/04/21 06:25:21;;;;;;;75.97;40.23;;;7.30;99.90;;;;;;6226037;23;20135;-74
2023/04/21 06:27:47;;;;;;;64.20;34.17;;;7.30;99.90;;;;;;6226916;23;20141;-75
2023/04/21 06:30:13;;;;;;;43.97;28.23;;;7.30;99.90;;;;;;6224270;23;20161;-74
2023/04/21 06:32:39;;;;;;;58.87;32.27;;;7.40;99.90;;;;;;6226126;23;20148;-73
2023/04/21 06:35:06;;;;;;;43.77;27.10;;;7.30;99.90;;;;;;6200204;23;20377;-74
2023/04/21 06:37:31;;;;;;;37.90;23.70;;;7.40;99.90;;;;;;6200379;23;20365;-73
2023/04/21 06:39:57;;;;;;;44.20;29.17;;;7.60;99.90;;;;;;6202226;23;20403;-74
2023/04/21 06:42:23;;;;;;;43.27;27.50;;;7.90;99.90;;;;;;6196016;23;20169;-40
2023/04/21 06:44:48;;;;;;;42.57;27.90;;;7.90;99.90;;;;;;6219365;23;20578;-44
2023/04/21 06:47:15;;;;;;;36.07;25.40;;;8.00;99.90;;;;;;6219623;23;20130;-44
2023/04/21 06:49:41;;;;;;;29.40;22.30;;;8.10;99.90;;;;;;6193062;23;20193;-45
2023/04/21 06:52:07;;;;;;;34.57;24.30;;;8.20;99.90;;;;;;6223435;23;20384;-41
2023/04/21 06:54:32;;;;;;;40.33;26.13;;;8.40;99.90;;;;;;6221033;23;20169;-42
2023/04/21 06:56:58;;;;;;;31.87;25.13;;;8.50;99.90;;;;;;6220308;23;20221;-40
2023/04/21 06:59:23;;;;;;;34.57;24.87;;;8.50;99.90;;;;;;6220159;23;20192;-40
2023/04/21 07:01:51;;;;;;;25.80;20.93;;;8.60;99.90;;;;;;6220936;23;20188;-44
2023/04/21 07:04:17;;;;;;;31.80;25.13;;;8.60;99.90;;;;;;6219656;23;20202;-42
2023/04/21 07:06:42;;;;;;;36.83;26.90;;;8.70;99.90;;;;;;6220240;23;20358;-44
2023/04/21 07:09:08;;;;;;;30.07;24.10;;;8.80;99.90;;;;;;6220333;23;20898;-43
2023/04/21 07:11:34;;;;;;;27.50;20.80;;;8.80;99.90;;;;;;6220352;23;20224;-42
2023/04/21 07:14:01;;;;;;;25.00;20.63;;;8.90;99.90;;;;;;6218821;23;20141;-39
2023/04/21 07:16:27;;;;;;;24.93;22.00;;;9.20;99.90;;;;;;6192979;23;20157;-42
2023/04/21 07:18:53;;;;;;;21.73;17.30;;;9.30;99.90;;;;;;6220024;23;20419;-41
2023/04/21 07:21:18;;;;;;;27.67;21.40;;;9.40;99.90;;;;;;6219595;23;20404;-42
2023/04/21 07:23:44;;;;;;;25.27;20.87;;;9.60;99.90;;;;;;6220026;23;20126;-41
2023/04/21 07:26:09;;;;;;;20.87;16.20;;;9.70;99.90;;;;;;6193679;23;20170;-44
2023/04/21 07:28:35;;;;;;;25.10;19.07;;;9.80;99.90;;;;;;6223244;23;20141;-73
2023/04/21 07:31:01;;;;;;;23.40;18.60;;;9.90;99.90;;;;;;6203636;23;20150;-76
2023/04/21 07:33:27;;;;;;;23.40;18.00;;;9.90;99.90;;;;;;6206082;23;20364;-74
2023/04/21 07:35:56;;;;;;;22.80;18.03;;;10.00;99.90;;;;;;6176386;23;20142;-73
2023/04/21 07:38:21;;;;;;;22.87;19.20;;;10.10;99.90;;;;;;6177746;23;20142;-74
2023/04/21 07:40:47;;;;;;;24.60;20.17;;;10.20;99.90;;;;;;6202007;23;20537;-72
2023/04/21 07:43:13;;;;;;;23.27;17.10;;;10.40;99.90;;;;;;6228228;23;20173;-73
2023/04/21 07:45:38;;;;;;;24.93;19.20;;;10.40;99.90;;;;;;6200572;23;20221;-75
2023/04/21 07:48:05;;;;;;;22.80;17.90;;;10.40;99.90;;;;;;6228365;23;20217;-72
2023/04/21 07:50:31;;;;;;;25.03;18.07;;;10.50;99.90;;;;;;6228776;23;20153;-73
2023/04/21 07:52:56;;;;;;;21.20;16.40;;;10.50;99.90;;;;;;6204312;23;20368;-74
2023/04/21 07:55:22;;;;;;;19.70;16.23;;;10.50;99.90;;;;;;6206438;23;20194;-75
2023/04/21 07:57:48;;;;;;;20.73;17.13;;;10.70;99.90;;;;;;6177297;23;20165;-76
2023/04/21 08:00:14;;;;;;;23.27;17.60;;;10.80;99.90;;;;;;6231209;23;20166;-77
2023/04/21 08:02:40;;;;;;;19.80;15.90;;;10.80;99.90;;;;;;6203192;23;20396;-71
2023/04/21 08:05:06;;;;;;;21.40;17.23;;;10.80;99.90;;;;;;6202939;23;20419;-75
2023/04/21 08:07:32;;;;;;;18.27;13.77;;;10.90;99.90;;;;;;6201300;23;20161;-72
2023/04/21 08:09:59;;;;;;;21.73;17.30;;;11.00;99.90;;;;;;6175705;23;20697;-73
2023/04/21 08:12:25;;;;;;;19.33;15.07;;;11.10;99.90;;;;;;6196687;23;20194;-73
2023/04/21 08:14:50;;;;;;;18.03;14.67;;;11.30;99.90;;;;;;6198853;23;20365;-74
2023/04/21 08:17:16;;;;;;;19.93;15.10;;;11.40;99.90;;;;;;6197096;23;20382;-72
2023/04/21 08:19:42;;;;;;;20.87;16.43;;;11.60;99.90;;;;;;6196910;23;20222;-70
2023/04/21 08:22:08;;;;;;;19.90;15.83;;;11.80;99.90;;;;;;6195332;23;20421;-72
2023/04/21 08:24:34;;;;;;;19.60;16.30;;;11.90;99.90;;;;;;6198739;23;20154;-75
2023/04/21 08:27:01;;;;;;;16.80;14.43;;;12.00;99.90;;;;;;6198407;23;20374;-74
2023/04/21 08:29:27;;;;;;;18.83;16.17;;;12.10;99.90;;;;;;6198862;23;20469;-73
2023/04/21 08:31:52;;;;;;;20.43;16.17;;;12.20;99.90;;;;;;6198730;23;20445;-73
2023/04/21 08:34:18;;;;;;;20.27;16.77;;;12.40;99.90;;;;;;6202581;23;20405;-75
2023/04/21 08:36:45;;;;;;;20.63;16.50;;;12.40;99.90;;;;;;6199946;23;20161;-72
2023/04/21 08:39:12;;;;;;;19.83;16.73;;;12.50;99.90;;;;;;6204044;23;20414;-72
2023/04/21 08:41:41;;;;;;;19.20;16.27;;;12.60;99.90;;;;;;6201464;23;20443;-74
2023/04/21 08:44:08;;;;;;;18.77;15.00;;;12.70;99.90;;;;;;6199196;23;20449;-75
2023/04/21 08:46:35;;;;;;;21.33;17.07;;;12.70;99.90;;;;;;6198393;23;20639;-75
2023/04/21 08:49:02;;;;;;;21.03;15.90;;;12.80;99.90;;;;;;6200065;23;20894;-73
2023/04/21 08:51:29;;;;;;;18.70;16.70;;;12.80;99.90;;;;;;6177339;23;20373;-73
2023/04/21 08:53:55;;;;;;;23.37;18.97;;;12.80;99.90;;;;;;6201097;23;20446;-75
2023/04/21 08:56:23;;;;;;;21.50;18.00;;;12.90;99.00;;;;;;6199975;23;20372;-75
2023/04/21 08:58:48;;;;;;;21.77;16.90;;;12.80;99.90;;;;;;6199702;23;20515;-74
2023/04/21 09:01:14;;;;;;;20.30;16.80;;;13.00;99.90;;;;;;6200085;23;20413;-75
2023/04/21 09:03:40;;;;;;;21.07;17.20;;;13.00;99.90;;;;;;6197991;23;20207;-73
2023/04/21 09:06:07;;;;;;;21.53;17.00;;;13.30;98.30;;;;;;6200223;23;20134;-74
2023/04/21 09:08:35;;;;;;;20.20;16.70;;;13.40;97.70;;;;;;6200120;23;20172;-77
2023/04/21 09:11:01;;;;;;;16.83;13.60;;;13.30;96.20;;;;;;6198697;23;20871;-75
2023/04/21 09:13:35;;;;;;;19.80;17.60;;;13.40;98.10;;;;;;6205621;23;20378;-73
2023/04/21 09:16:17;;;;;;;20.70;16.20;;;13.60;96.60;;;;;;6178474;23;20151;-73
2023/04/21 09:18:43;;;;;;;17.03;15.20;;;13.60;94.80;;;;;;6179199;23;20375;-73
2023/04/21 09:21:14;;;;;;;23.03;19.03;;;13.70;95.90;;;;;;6180074;23;20482;-73
2023/04/21 09:23:49;;;;;;;22.23;18.23;;;13.80;94.30;;;;;;6203371;23;20368;-73
2023/04/21 09:26:16;;;;;;;18.33;15.70;;;13.90;94.50;;;;;;6179723;23;20372;-76
2023/04/21 09:28:43;;;;;;;18.47;15.50;;;14.20;92.80;;;;;;6179464;23;20385;-75
2023/04/21 09:31:16;;;;;;;19.40;16.53;;;14.30;93.90;;;;;;6229985;23;20376;-75
2023/04/21 09:33:47;;;;;;;17.53;14.23;;;14.50;92.20;;;;;;6205695;23;20353;-75
2023/04/21 09:36:25;;;;;;;19.77;16.57;;;14.70;92.50;;;;;;6201877;23;20416;-72
2023/04/21 09:38:53;;;;;;;16.77;14.90;;;14.80;91.20;;;;;;6230004;23;20406;-72
2023/04/21 09:41:19;;;;;;;18.13;15.60;;;14.70;90.20;;;;;;6204115;23;20444;-74
2023/04/21 09:43:44;;;;;;;18.53;13.87;;;14.80;90.00;;;;;;6178629;23;20427;-73
2023/04/21 09:46:11;;;;;;;22.57;18.17;;;14.80;91.00;;;;;;6203940;23;20153;-76
2023/04/21 09:48:42;;;;;;;22.27;18.27;;;14.80;90.50;;;;;;6205035;23;20435;-74
2023/04/21 09:51:09;;;;;;;18.37;16.40;;;14.90;88.80;;;;;;6202544;23;20357;-74
2023/04/21 09:53:37;;;;;;;24.00;15.00;;;15.00;90.60;;;;;;6233512;23;20365;-73
2023/04/21 09:56:05;;;;;;;21.77;16.70;;;15.40;82.10;;;;;;6203106;23;20395;-73
2023/04/21 09:58:51;;;;;;;19.80;17.27;;;15.70;80.30;;;;;;6205785;23;20388;-74
2023/04/21 10:01:16;;;;;;;19.97;16.30;;;15.60;80.10;;;;;;6206437;23;20420;-75
2023/04/21 10:03:45;;;;;;;18.40;15.07;;;15.70;78.10;;;;;;6211209;23;20362;-73
2023/04/21 10:06:11;;;;;;;21.10;16.00;;;15.60;79.30;;;;;;6182804;23;20130;-74
2023/04/21 10:08:37;;;;;;;19.10;15.27;;;15.60;76.80;;;;;;6181904;23;20373;-75
2023/04/21 10:11:03;;;;;;;18.20;14.60;;;15.60;80.50;;;;;;6211884;23;20439;-75
2023/04/21 10:13:30;;;;;;;21.43;16.87;;;15.60;82.40;;;;;;6208814;23;20234;-75
2023/04/21 10:16:06;;;;;;;19.70;15.80;;;15.40;77.60;;;;;;6207101;23;20369;-74
2023/04/21 10:18:37;;;;;;;20.17;16.27;;;15.30;80.40;;;;;;6185610;23;20372;-75
2023/04/21 10:21:20;;;;;;;16.40;13.07;;;15.20;78.40;;;;;;6187712;23;20350;-76
2023/04/21 10:23:51;;;;;;;17.73;15.37;;;15.10;82.50;;;;;;6213381;23;20382;-76
2023/04/21 10:26:26;;;;;;;20.73;15.10;;;15.30;73.20;;;;;;6213109;23;20502;-74
2023/04/21 10:28:55;;;;;;;16.47;14.60;;;15.40;77.10;;;;;;6210290;23;20396;-76
2023/04/21 10:31:31;;;;;;;17.17;12.60;;;15.60;75.30;;;;;;6186017;23;20364;-75
2023/04/21 10:34:12;;;;;;;18.03;13.53;;;15.80;71.60;;;;;;6185918;23;20416;-75
2023/04/21 10:36:53;;;;;;;17.10;13.77;;;15.90;71.40;;;;;;6209814;23;20373;-75
2023/04/21 10:39:27;;;;;;;17.60;13.50;;;15.90;70.70;;;;;;6209531;23;20427;-73
2023/04/21 10:41:57;;;;;;;15.23;13.20;;;16.20;68.20;;;;;;6236789;23;20392;-75
2023/04/21 10:44:24;;;;;;;16.17;13.43;;;16.40;63.80;;;;;;6185910;23;20565;-77
2023/04/21 10:46:51;;;;;;;13.60;12.20;;;16.40;63.30;;;;;;6185618;23;20433;-75
2023/04/21 10:49:28;;;;;;;15.07;11.73;;;16.10;63.70;;;;;;6211331;23;20411;-75
2023/04/21 10:54:28;;;;;;;14.33;11.57;;;16.20;63.30;;;;;;6236045;23;20448;-76
2023/04/21 10:56:56;;;;;;;13.37;11.67;;;16.10;63.90;;;;;;6211919;23;20373;-75
2023/04/21 10:59:23;;;;;;;14.20;11.90;;;16.00;65.60;;;;;;6163542;23;20476;-76
2023/04/21 11:01:49;;;;;;;12.23;10.83;;;15.90;65.70;;;;;;6213460;23;20372;-76
2023/04/21 11:04:16;;;;;;;11.73;9.53;;;16.00;63.00;;;;;;6187696;23;20456;-76
2023/04/21 11:06:42;;;;;;;12.47;11.17;;;16.00;64.40;;;;;;6234278;23;20376;-74
2023/04/21 11:09:10;;;;;;;13.10;11.30;;;16.00;59.50;;;;;;6182614;23;20435;-75
2023/04/21 11:11:36;;;;;;;11.70;9.87;;;16.10;61.20;;;;;;6198225;23;20441;-73
2023/04/21 11:14:02;;;;;;;11.57;9.53;;;16.00;62.70;;;;;;6200319;23;20362;-75
2023/04/21 11:16:28;;;;;;;9.33;7.73;;;16.00;62.60;;;;;;6178170;23;20138;-75
2023/04/21 11:18:55;;;;;;;11.73;9.80;;;16.10;62.70;;;;;;6178870;23;20410;-75
2023/04/21 11:21:23;;;;;;;14.27;12.47;;;16.30;61.20;;;;;;6178839;23;20142;-75
2023/04/21 11:23:50;;;;;;;15.47;10.50;;;16.30;59.20;;;;;;6203119;23;20378;-76
2023/04/21 11:26:16;;;;;;;12.33;10.77;;;16.50;58.40;;;;;;6177153;23;20147;-75
2023/04/21 11:28:42;;;;;;;13.70;11.13;;;16.60;57.60;;;;;;6199068;23;20350;-76
2023/04/21 11:31:08;;;;;;;9.83;8.83;;;16.60;56.70;;;;;;6177748;23;20430;-75
2023/04/21 11:33:38;;;;;;;12.87;9.90;;;16.80;56.30;;;;;;6202507;23;20362;-77
2023/04/21 11:36:07;;;;;;;10.00;8.50;;;17.00;54.70;;;;;;6177118;23;20206;-77
2023/04/21 11:38:40;;;;;;;9.80;8.80;;;17.20;53.90;;;;;;6176174;23;20386;-74
2023/04/21 11:41:09;;;;;;;10.33;9.23;;;17.20;52.90;;;;;;6177997;23;20375;-76
2023/04/21 11:43:36;;;;;;;12.00;8.33;;;17.30;52.50;;;;;;6207305;23;20469;-76
2023/04/21 11:46:22;;;;;;;10.70;8.87;;;17.50;51.50;;;;;;6207376;23;20362;-75
2023/04/21 11:49:04;;;;;;;9.83;8.60;;;17.70;52.20;;;;;;6183107;23;20430;-73
2023/04/21 11:51:41;;;;;;;9.40;8.00;;;17.90;51.90;;;;;;6181466;23;20423;-77
2023/04/21 11:54:09;;;;;;;9.70;8.43;;;18.10;50.90;;;;;;6206400;23;20364;-76
2023/04/21 11:56:42;;;;;;;10.77;7.97;;;18.20;50.30;;;;;;6206349;23;20347;-73
2023/04/21 11:59:13;;;;;;;8.90;7.90;;;18.20;49.50;;;;;;6172972;23;20397;-75
2023/04/21 12:01:44;;;;;;;8.20;7.40;;;17.90;49.80;;;;;;6174459;23;20461;-74
2023/04/21 12:04:19;;;;;;;12.30;9.20;;;17.70;51.00;;;;;;6204350;23;20366;-77
2023/04/21 12:06:53;;;;;;;12.23;8.63;;;17.80;52.00;;;;;;6204161;23;20445;-73
2023/04/21 12:09:20;;;;;;;13.67;9.80;;;17.70;52.80;;;;;;6179269;23;20430;-76
2023/04/21 12:11:50;;;;;;;13.30;10.00;;;17.50;53.50;;;;;;6179741;23;20447;-75
2023/04/21 12:14:21;;;;;;;10.60;9.50;;;17.60;54.10;;;;;;6179594;23;20384;-76
2023/04/21 12:16:52;;;;;;;9.10;7.60;;;17.50;53.90;;;;;;6177360;23;20438;-76
2023/04/21 12:19:36;;;;;;;8.57;7.30;;;17.40;51.60;;;;;;6200614;23;20389;-75
2023/04/21 12:22:13;;;;;;;10.57;8.40;;;17.40;51.90;;;;;;6177495;23;20384;-75
2023/04/21 12:24:40;;;;;;;9.70;7.50;;;17.40;51.90;;;;;;6204412;23;20383;-76
2023/04/21 12:27:06;;;;;;;10.57;7.80;;;17.50;51.80;;;;;;6179110;23;20363;-76
2023/04/21 12:29:34;;;;;;;10.17;8.00;;;17.60;52.40;;;;;;6180118;23;20425;-76
2023/04/21 12:32:00;;;;;;;8.80;6.90;;;17.60;52.10;;;;;;6204746;23;20415;-76
2023/04/21 12:34:26;;;;;;;8.73;7.83;;;17.70;51.90;;;;;;6203484;23;20434;-75